createdAt,value
2018-11-04T00:00:20.252Z,19.77
2018-11-04T00:02:50.154Z,20.13
2018-11-04T00:05:19.817Z,19.57
2018-11-04T00:07:50.446Z,21.83
2018-11-04T00:10:20.052Z,21.47
2018-11-04T00:12:49.616Z,22.33
2018-11-04T00:15:19.207Z,23.60
2018-11-04T00:17:48.722Z,22.33
2018-11-04T00:20:18.307Z,24.87
2018-11-04T00:22:47.894Z,25.77
2018-11-04T00:25:17.518Z,24.40
2018-11-04T00:27:47.022Z,26.07
2018-11-04T00:30:16.782Z,27.93
2018-11-04T00:32:46.366Z,27.53
2018-11-04T00:35:15.954Z,28.53
2018-11-04T00:37:45.506Z,38.07
2018-11-04T00:40:15.050Z,50.87
2018-11-04T00:42:44.592Z,53.57
2018-11-04T00:45:14.196Z,57.07
2018-11-04T00:47:43.887Z,59.90
2018-11-04T00:50:14.870Z,59.07
2018-11-04T00:52:44.689Z,61.20
2018-11-04T00:55:14.579Z,62.07
2018-11-04T00:57:44.103Z,60.60
2018-11-04T01:00:16.832Z,64.53
2018-11-04T01:02:47.454Z,66.00
2018-11-04T01:05:17.391Z,62.97
2018-11-04T01:07:46.981Z,59.77
2018-11-04T01:10:16.585Z,63.97
2018-11-04T01:12:46.305Z,62.67
2018-11-04T01:15:16.175Z,63.27
2018-11-04T01:17:45.720Z,59.57
2018-11-04T01:20:16.450Z,60.97
2018-11-04T01:22:46.534Z,61.40
2018-11-04T01:25:16.077Z,60.40
2018-11-04T01:27:45.666Z,57.87
2018-11-04T01:30:15.888Z,62.00
2018-11-04T01:32:45.588Z,61.07
2018-11-04T01:35:15.127Z,63.10
2018-11-04T01:37:44.681Z,61.53
2018-11-04T01:40:14.261Z,60.80
2018-11-04T01:42:43.782Z,58.37
2018-11-04T01:45:13.329Z,57.07
2018-11-04T01:47:42.862Z,55.27
2018-11-04T01:50:14.084Z,54.90
2018-11-04T01:52:43.683Z,55.40
2018-11-04T01:55:13.476Z,52.93
2018-11-04T01:57:43.032Z,53.43
2018-11-04T02:00:16.258Z,52.73
2018-11-04T02:02:46.370Z,52.10
2018-11-04T02:05:16.210Z,51.57
2018-11-04T02:07:45.695Z,50.70
2018-11-04T02:10:15.704Z,49.00
2018-11-04T02:12:45.234Z,48.00
2018-11-04T02:15:14.875Z,46.47
2018-11-04T02:17:44.449Z,45.40
2018-11-04T02:20:14.386Z,43.67
2018-11-04T02:22:44.045Z,44.27
2018-11-04T02:25:14.360Z,43.17
2018-11-04T02:27:44.307Z,43.53
2018-11-04T02:30:17.506Z,43.77
2018-11-04T02:32:47.490Z,43.57
2018-11-04T02:35:17.187Z,44.90
2018-11-04T02:37:46.795Z,45.83
2018-11-04T02:40:16.375Z,46.37
2018-11-04T02:42:45.875Z,47.10
2018-11-04T02:45:15.496Z,45.57
2018-11-04T02:47:45.060Z,46.47
2018-11-04T02:50:14.619Z,46.53
2018-11-04T02:52:44.137Z,46.20
2018-11-04T02:55:13.719Z,46.57
2018-11-04T02:57:43.239Z,44.57
2018-11-04T03:00:14.425Z,45.40
2018-11-04T03:02:44.028Z,43.73
2018-11-04T03:05:13.540Z,42.97
2018-11-04T03:07:43.603Z,43.87
2018-11-04T03:10:14.226Z,44.33
2018-11-04T03:12:43.782Z,42.60
2018-11-04T03:15:13.300Z,43.70
2018-11-04T03:17:42.856Z,42.07
2018-11-04T03:20:12.409Z,39.93
2018-11-04T03:22:41.971Z,35.40
2018-11-04T03:25:11.575Z,31.23
2018-11-04T03:27:41.103Z,29.47
2018-11-04T03:30:10.903Z,30.10
2018-11-04T03:32:40.614Z,28.47
2018-11-04T03:35:10.151Z,26.23
2018-11-04T03:37:39.682Z,25.47
2018-11-04T03:40:10.713Z,26.57
2018-11-04T03:42:40.561Z,27.87
2018-11-04T03:45:10.664Z,24.00
2018-11-04T03:47:40.436Z,28.27
2018-11-04T03:50:11.468Z,26.50
2018-11-04T03:52:41.097Z,26.67
2018-11-04T03:55:10.662Z,24.37
2018-11-04T03:57:40.214Z,21.47
2018-11-04T04:00:11.950Z,21.40
2018-11-04T04:02:42.343Z,20.33
2018-11-04T04:05:12.268Z,22.20
2018-11-04T04:07:41.847Z,20.83
2018-11-04T04:10:11.445Z,19.60
2018-11-04T04:12:41.001Z,16.57
2018-11-04T04:15:11.550Z,16.03
2018-11-04T04:17:41.339Z,14.83
2018-11-04T04:20:10.917Z,14.57
2018-11-04T04:22:40.510Z,13.63
2018-11-04T04:25:10.223Z,14.57
2018-11-04T04:27:39.770Z,14.27
2018-11-04T04:30:10.874Z,13.50
2018-11-04T04:32:40.423Z,14.67
2018-11-04T04:35:10.801Z,14.30
2018-11-04T04:37:40.875Z,15.40
2018-11-04T04:40:10.703Z,16.70
2018-11-04T04:42:40.191Z,17.07
2018-11-04T04:45:09.765Z,14.30
2018-11-04T04:47:39.331Z,14.87
2018-11-04T04:50:08.894Z,16.90
2018-11-04T04:52:38.438Z,16.87
2018-11-04T04:55:08.027Z,18.03
2018-11-04T04:57:37.567Z,16.13
2018-11-04T05:00:07.822Z,16.90
2018-11-04T05:02:37.402Z,18.10
2018-11-04T05:05:07.213Z,14.43
2018-11-04T05:07:36.707Z,16.60
2018-11-04T05:10:06.859Z,16.03
2018-11-04T05:12:36.623Z,13.93
2018-11-04T05:15:07.448Z,16.53
2018-11-04T05:17:37.117Z,15.07
2018-11-04T05:20:06.836Z,15.00
2018-11-04T05:22:36.350Z,15.47
2018-11-04T05:25:06.421Z,26.30
2018-11-04T05:27:35.957Z,24.10
2018-11-04T05:30:07.512Z,22.13
2018-11-04T05:32:37.005Z,20.27
2018-11-04T05:35:07.035Z,20.53
2018-11-04T05:37:37.004Z,19.23
2018-11-04T05:40:07.299Z,17.10
2018-11-04T05:42:36.795Z,16.77
2018-11-04T05:45:07.240Z,17.53
2018-11-04T05:47:36.820Z,19.47
2018-11-04T05:50:06.916Z,21.50
2018-11-04T05:52:36.838Z,23.10
2018-11-04T05:55:07.299Z,22.00
2018-11-04T05:57:36.856Z,22.77
2018-11-04T06:00:07.687Z,23.00
2018-11-04T06:02:37.190Z,22.17
2018-11-04T06:05:08.058Z,21.60
2018-11-04T06:07:37.570Z,21.83
2018-11-04T06:10:07.570Z,22.30
2018-11-04T06:12:37.606Z,24.20
2018-11-04T06:15:07.962Z,24.97
2018-11-04T06:17:37.547Z,24.87
2018-11-04T06:20:08.308Z,28.30
2018-11-04T06:22:37.862Z,29.03
2018-11-04T06:25:07.560Z,27.30
2018-11-04T06:27:37.091Z,27.47
2018-11-04T06:30:08.486Z,31.17
2018-11-04T06:32:38.078Z,32.67
2018-11-04T06:35:08.103Z,28.40
2018-11-04T06:37:37.906Z,28.47
2018-11-04T06:40:08.258Z,29.87
2018-11-04T06:42:37.843Z,28.50
2018-11-04T06:45:08.351Z,31.97
2018-11-04T06:47:38.038Z,31.60
2018-11-04T06:50:09.644Z,32.63
2018-11-04T06:52:39.167Z,32.70
2018-11-04T06:55:09.327Z,34.27
2018-11-04T06:57:39.072Z,34.10
2018-11-04T07:00:10.376Z,34.70
2018-11-04T07:02:40.192Z,32.57
2018-11-04T07:05:09.748Z,34.23
2018-11-04T07:07:39.328Z,34.27
2018-11-04T07:10:09.536Z,33.67
2018-11-04T07:12:39.186Z,36.73
2018-11-04T07:15:08.744Z,36.03
2018-11-04T07:17:38.471Z,36.97
2018-11-04T07:20:08.826Z,37.23
2018-11-04T07:22:38.630Z,37.37
2018-11-04T07:25:08.462Z,36.97
2018-11-04T07:27:38.019Z,37.47
2018-11-04T07:30:09.547Z,37.23
2018-11-04T07:32:39.094Z,37.33
2018-11-04T07:35:09.150Z,38.17
2018-11-04T07:37:38.824Z,38.47
2018-11-04T07:40:09.174Z,36.73
2018-11-04T07:42:39.190Z,37.17
2018-11-04T07:45:09.472Z,39.27
2018-11-04T07:47:39.023Z,37.47
2018-11-04T07:50:10.815Z,36.57
2018-11-04T07:52:40.362Z,36.13
2018-11-04T07:55:10.252Z,33.47
2018-11-04T07:57:41.320Z,34.43
2018-11-04T08:00:13.369Z,30.77
2018-11-04T08:02:43.265Z,31.07
2018-11-04T08:05:13.127Z,32.43
2018-11-04T08:07:42.698Z,33.57
2018-11-04T08:10:13.465Z,31.03
2018-11-04T08:12:43.046Z,32.00
2018-11-04T08:15:12.587Z,30.97
2018-11-04T08:17:42.157Z,29.43
2018-11-04T08:20:11.728Z,28.47
2018-11-04T08:22:41.553Z,29.33
2018-11-04T08:25:11.079Z,27.13
2018-11-04T08:27:40.649Z,28.23
2018-11-04T08:30:10.336Z,26.20
2018-11-04T08:32:39.870Z,26.37
2018-11-04T08:35:09.376Z,25.23
2018-11-04T08:37:38.937Z,23.97
2018-11-04T08:40:08.727Z,27.53
2018-11-04T08:42:38.145Z,25.20
2018-11-04T08:45:08.063Z,22.17
2018-11-04T08:47:37.623Z,22.57
2018-11-04T08:50:08.566Z,23.87
2018-11-04T08:52:38.161Z,23.40
2018-11-04T08:55:08.747Z,21.47
2018-11-04T08:57:38.348Z,21.23
2018-11-04T09:00:10.091Z,19.07
2018-11-04T09:02:39.604Z,19.90
2018-11-04T09:05:09.561Z,18.43
2018-11-04T09:07:39.175Z,19.80
2018-11-04T09:10:11.824Z,20.87
2018-11-04T09:12:41.459Z,19.70
2018-11-04T09:15:11.503Z,19.17
2018-11-04T09:17:41.115Z,16.90
2018-11-04T09:20:12.616Z,15.07
2018-11-04T09:22:43.069Z,14.73
2018-11-04T09:25:13.164Z,16.20
2018-11-04T09:27:42.704Z,15.57
2018-11-04T09:30:14.574Z,13.83
2018-11-04T09:32:44.132Z,14.17
2018-11-04T09:35:13.825Z,14.70
2018-11-04T09:37:43.327Z,14.10
2018-11-04T09:40:13.673Z,13.27
2018-11-04T09:42:43.194Z,14.43
2018-11-04T09:45:12.781Z,11.43
2018-11-04T09:47:42.339Z,12.40
2018-11-04T09:50:12.514Z,12.47
2018-11-04T09:52:42.018Z,12.63
2018-11-04T09:55:12.397Z,14.73
2018-11-04T09:57:41.942Z,13.10
2018-11-04T10:00:12.662Z,12.03
2018-11-04T10:02:42.218Z,12.23
2018-11-04T10:05:12.187Z,12.53
2018-11-04T10:07:41.773Z,13.57
2018-11-04T10:10:13.750Z,13.23
2018-11-04T10:12:44.196Z,13.67
2018-11-04T10:15:13.772Z,14.93
2018-11-04T10:17:43.338Z,15.47
2018-11-04T10:20:13.752Z,14.83
2018-11-04T10:22:42.963Z,14.77
2018-11-04T10:25:13.351Z,15.93
2018-11-04T10:27:43.121Z,15.67
2018-11-04T10:30:15.114Z,14.67
2018-11-04T10:32:44.651Z,13.60
2018-11-04T10:35:14.241Z,13.97
2018-11-04T10:37:44.105Z,11.50
2018-11-04T10:40:14.517Z,12.37
2018-11-04T10:42:44.096Z,11.97
2018-11-04T10:45:13.608Z,10.93
2018-11-04T10:47:43.166Z,10.90
2018-11-04T10:50:13.404Z,11.07
2018-11-04T10:52:42.976Z,11.60
2018-11-04T10:55:12.515Z,12.83
2018-11-04T10:57:42.105Z,11.60
2018-11-04T11:00:16.862Z,12.80
2018-11-04T11:02:46.692Z,11.93
2018-11-04T11:05:16.471Z,12.03
2018-11-04T11:07:46.236Z,12.50
2018-11-04T11:10:15.738Z,11.80
2018-11-04T11:12:45.283Z,12.67
2018-11-04T11:15:14.792Z,13.40
2018-11-04T11:17:44.416Z,12.53
2018-11-04T11:20:13.928Z,12.20
2018-11-04T11:22:43.807Z,12.23
2018-11-04T11:25:13.190Z,12.33
2018-11-04T11:27:42.734Z,13.37
2018-11-04T11:30:12.401Z,13.00
2018-11-04T11:32:41.862Z,12.90
2018-11-04T11:35:11.363Z,13.23
2018-11-04T11:37:40.944Z,13.37
2018-11-04T11:40:10.842Z,14.13
2018-11-04T11:42:40.484Z,12.90
2018-11-04T11:45:10.541Z,13.10
2018-11-04T11:47:40.114Z,13.43
2018-11-04T11:50:09.804Z,13.40
2018-11-04T11:52:39.453Z,13.93
2018-11-04T11:55:09.154Z,12.97
2018-11-04T11:57:38.719Z,12.60
2018-11-04T12:00:09.703Z,11.43
2018-11-04T12:02:39.953Z,10.77
2018-11-04T12:05:09.929Z,11.13
2018-11-04T12:07:39.591Z,11.53
2018-11-04T12:10:11.339Z,8.00
2018-11-04T12:12:40.911Z,7.70
2018-11-04T12:15:11.886Z,8.63
2018-11-04T12:17:41.460Z,7.93
2018-11-04T12:20:11.935Z,7.57
2018-11-04T12:22:41.578Z,9.03
2018-11-04T12:25:12.318Z,8.37
2018-11-04T12:27:42.026Z,8.20
2018-11-04T12:30:13.496Z,8.30
2018-11-04T12:32:43.042Z,7.90
2018-11-04T12:35:13.638Z,8.57
2018-11-04T12:37:43.384Z,8.13
2018-11-04T12:40:13.686Z,9.07
2018-11-04T12:42:43.167Z,9.80
2018-11-04T12:45:13.362Z,9.23
2018-11-04T12:47:43.043Z,10.27
2018-11-04T12:50:13.317Z,9.37
2018-11-04T12:52:42.971Z,8.43
2018-11-04T12:55:12.574Z,8.10
2018-11-04T12:57:42.119Z,8.00
2018-11-04T13:00:14.423Z,7.10
2018-11-04T13:02:44.652Z,6.20
2018-11-04T13:05:14.270Z,6.90
2018-11-04T13:07:43.810Z,6.90
2018-11-04T13:10:14.303Z,7.00
2018-11-04T13:12:43.810Z,6.77
2018-11-04T13:15:14.483Z,6.10
2018-11-04T13:17:44.377Z,7.10
2018-11-04T13:20:13.898Z,7.23
2018-11-04T13:22:43.446Z,6.97
2018-11-04T13:25:12.977Z,7.00
2018-11-04T13:27:42.543Z,5.43
2018-11-04T13:30:13.259Z,5.57
2018-11-04T13:32:42.842Z,5.77
2018-11-04T13:35:12.352Z,5.67
2018-11-04T13:37:41.892Z,5.30
2018-11-04T13:40:12.283Z,5.70
2018-11-04T13:42:42.186Z,5.93
2018-11-04T13:45:12.192Z,5.70
2018-11-04T13:47:41.728Z,5.63
2018-11-04T13:50:12.787Z,5.77
2018-11-04T13:52:42.684Z,5.30
2018-11-04T13:55:12.268Z,5.73
2018-11-04T13:57:41.848Z,5.40
2018-11-04T14:00:15.365Z,5.50
2018-11-04T14:02:46.525Z,5.87
2018-11-04T14:05:16.066Z,5.37
2018-11-04T14:07:45.643Z,5.73
2018-11-04T14:10:16.175Z,5.50
2018-11-04T14:12:46.324Z,6.30
2018-11-04T14:15:16.006Z,5.40
2018-11-04T14:17:45.667Z,5.70
2018-11-04T14:20:15.211Z,5.63
2018-11-04T14:22:44.770Z,5.63
2018-11-04T14:25:14.287Z,7.20
2018-11-04T14:27:43.871Z,8.90
2018-11-04T14:30:15.398Z,9.77
2018-11-04T14:32:45.100Z,7.37
2018-11-04T14:35:14.656Z,6.60
2018-11-04T14:37:44.155Z,7.70
2018-11-04T14:40:14.928Z,8.47
2018-11-04T14:42:45.171Z,8.70
2018-11-04T14:45:14.815Z,9.30
2018-11-04T14:47:44.341Z,11.83
2018-11-04T14:50:15.233Z,10.17
2018-11-04T14:52:44.872Z,10.30
2018-11-04T14:55:14.416Z,10.57
2018-11-04T14:57:43.992Z,8.90
2018-11-04T15:00:15.566Z,9.00
2018-11-04T15:02:45.139Z,8.43
2018-11-04T15:05:14.657Z,9.77
2018-11-04T15:07:44.220Z,10.63
2018-11-04T15:10:14.786Z,10.27
2018-11-04T15:12:44.603Z,11.77
2018-11-04T15:15:15.696Z,11.43
2018-11-04T15:17:45.256Z,9.50
2018-11-04T15:20:14.783Z,8.83
2018-11-04T15:22:51.669Z,8.87
2018-11-04T15:25:22.179Z,7.23
2018-11-04T15:27:51.772Z,7.83
2018-11-04T15:30:21.307Z,6.37
2018-11-04T15:32:50.910Z,7.10
2018-11-04T15:35:20.404Z,7.23
2018-11-04T15:37:49.961Z,7.10
2018-11-04T15:40:19.570Z,7.00
2018-11-04T15:42:49.088Z,7.83
2018-11-04T15:45:18.646Z,7.43
2018-11-04T15:47:48.152Z,7.70
2018-11-04T15:50:18.856Z,8.17
2018-11-04T15:52:49.020Z,9.27
2018-11-04T15:55:18.558Z,10.03
2018-11-04T15:57:48.113Z,10.03
2018-11-04T16:00:17.614Z,10.67
2018-11-04T16:02:47.230Z,11.13
2018-11-04T16:05:16.743Z,11.10
2018-11-04T16:07:46.284Z,13.27
2018-11-04T16:10:15.847Z,12.33
2018-11-04T16:12:45.399Z,12.03
2018-11-04T16:15:15.571Z,13.10
2018-11-04T16:17:45.542Z,12.53
2018-11-04T16:20:15.961Z,12.93
2018-11-04T16:22:46.195Z,12.47
2018-11-04T16:25:15.745Z,12.57
2018-11-04T16:27:45.303Z,12.17
2018-11-04T16:30:15.576Z,11.03
2018-11-04T16:32:45.164Z,11.37
2018-11-04T16:35:15.393Z,11.67
2018-11-04T16:37:45.688Z,10.97
2018-11-04T16:40:15.203Z,10.87
2018-11-04T16:42:44.763Z,12.00
2018-11-04T16:45:15.533Z,12.77
2018-11-04T16:47:45.143Z,12.57
2018-11-04T16:50:15.237Z,12.53
2018-11-04T16:52:45.264Z,14.03
2018-11-04T16:55:15.074Z,14.87
2018-11-04T16:57:44.948Z,13.27
2018-11-04T17:00:14.459Z,13.00
2018-11-04T17:02:44.020Z,13.50
2018-11-04T17:05:14.005Z,11.47
2018-11-04T17:07:43.839Z,12.63
2018-11-04T17:10:13.357Z,11.33
2018-11-04T17:12:42.951Z,11.10
2018-11-04T17:15:13.835Z,11.30
2018-11-04T17:17:43.635Z,10.60
2018-11-04T17:20:16.253Z,10.80
2018-11-04T17:22:46.111Z,10.33
2018-11-04T17:25:15.636Z,10.70
2018-11-04T17:27:45.290Z,10.93
2018-11-04T17:30:16.638Z,10.10
2018-11-04T17:32:46.450Z,11.10
2018-11-04T17:35:16.628Z,10.47
2018-11-04T17:37:46.530Z,11.57
2018-11-04T17:40:16.756Z,10.23
2018-11-04T17:42:46.432Z,11.00
2018-11-04T17:45:16.920Z,11.43
2018-11-04T17:47:46.976Z,10.30
2018-11-04T17:50:17.935Z,10.73
2018-11-04T17:52:47.559Z,10.87
2018-11-04T17:55:17.253Z,10.63
2018-11-04T17:57:46.980Z,11.80
2018-11-04T18:00:17.337Z,10.13
2018-11-04T18:02:47.039Z,10.87
2018-11-04T18:05:16.597Z,11.33
2018-11-04T18:07:46.183Z,11.93
2018-11-04T18:10:16.347Z,12.30
2018-11-04T18:12:45.924Z,12.47
2018-11-04T18:15:15.671Z,12.43
2018-11-04T18:17:45.382Z,14.40
2018-11-04T18:20:14.914Z,13.40
2018-11-04T18:22:44.460Z,11.40
2018-11-04T18:25:14.101Z,11.50
2018-11-04T18:27:43.602Z,12.53
2018-11-04T18:30:14.755Z,16.37
2018-11-04T18:32:44.788Z,16.17
2018-11-04T18:35:14.411Z,15.00
2018-11-04T18:37:44.031Z,17.83
2018-11-04T18:40:15.935Z,19.27
2018-11-04T18:42:45.993Z,20.93
2018-11-04T18:45:16.576Z,17.37
2018-11-04T18:47:46.188Z,18.37
2018-11-04T18:50:16.424Z,14.97
2018-11-04T18:52:46.160Z,16.83
2018-11-04T18:55:15.635Z,18.00
2018-11-04T18:57:45.404Z,18.20
2018-11-04T19:00:17.212Z,17.00
2018-11-04T19:02:47.452Z,16.73
2018-11-04T19:05:17.087Z,17.93
2018-11-04T19:07:46.778Z,19.80
2018-11-04T19:10:17.671Z,18.93
2018-11-04T19:12:47.347Z,19.80
2018-11-04T19:15:16.917Z,22.50
2018-11-04T19:17:46.480Z,22.20
2018-11-04T19:20:16.392Z,24.03
2018-11-04T19:22:45.966Z,24.67
2018-11-04T19:25:16.180Z,24.80
2018-11-04T19:27:45.788Z,23.23
2018-11-04T19:30:16.498Z,24.53
2018-11-04T19:32:46.422Z,24.07
2018-11-04T19:35:16.936Z,23.60
2018-11-04T19:37:46.513Z,23.00
2018-11-04T19:40:16.691Z,22.23
2018-11-04T19:42:46.305Z,22.00
2018-11-04T19:45:15.871Z,21.77
2018-11-04T19:47:45.429Z,20.93
2018-11-04T19:50:15.020Z,20.87
2018-11-04T19:52:44.522Z,20.87
2018-11-04T19:55:14.303Z,20.80
2018-11-04T19:57:43.786Z,20.50
2018-11-04T20:00:13.883Z,20.20
2018-11-04T20:02:43.409Z,19.37
2018-11-04T20:05:13.525Z,19.90
2018-11-04T20:07:43.240Z,19.73
2018-11-04T20:10:15.423Z,19.00
2018-11-04T20:12:50.086Z,19.87
2018-11-04T20:15:19.612Z,19.57
2018-11-04T20:17:49.669Z,20.40
2018-11-04T20:20:23.620Z,19.23
2018-11-04T20:22:53.272Z,19.23
2018-11-04T20:25:27.799Z,19.80
2018-11-04T20:27:57.365Z,19.73
2018-11-04T20:30:26.930Z,20.20
2018-11-04T20:33:01.593Z,20.80
2018-11-04T20:35:31.188Z,19.70
2018-11-04T20:38:00.721Z,19.13
2018-11-04T20:40:35.238Z,20.67
2018-11-04T20:43:04.781Z,20.07
2018-11-04T20:45:34.355Z,20.63
2018-11-04T20:48:08.944Z,20.17
2018-11-04T20:50:43.598Z,20.13
2018-11-04T20:53:13.157Z,19.93
2018-11-04T20:55:47.632Z,20.43
2018-11-04T20:58:17.447Z,19.67
2018-11-04T21:00:46.814Z,20.13
2018-11-04T21:03:16.302Z,20.17
2018-11-04T21:05:45.885Z,20.13
2018-11-04T21:08:15.447Z,19.67
2018-11-04T21:10:45.031Z,19.33
2018-11-04T21:13:14.521Z,20.97
2018-11-04T21:15:44.110Z,19.83
2018-11-04T21:18:13.605Z,20.23
2018-11-04T21:20:43.193Z,19.53
2018-11-04T21:23:12.699Z,19.10
2018-11-04T21:25:42.460Z,19.27
2018-11-04T21:28:11.928Z,19.73
2018-11-04T21:30:41.467Z,20.00
2018-11-04T21:33:11.047Z,20.33
2018-11-04T21:35:40.569Z,19.20
2018-11-04T21:38:10.143Z,20.93
2018-11-04T21:40:39.719Z,20.57
2018-11-04T21:43:09.349Z,22.07
2018-11-04T21:45:38.823Z,19.03
2018-11-04T21:48:08.363Z,19.93
2018-11-04T21:50:37.870Z,19.67
2018-11-04T21:53:07.488Z,21.33
2018-11-04T21:55:37.321Z,18.93
2018-11-04T21:58:11.150Z,19.07
2018-11-04T22:00:40.802Z,19.60
2018-11-04T22:03:10.598Z,19.13
2018-11-04T22:05:40.061Z,20.30
2018-11-04T22:08:09.625Z,19.13
2018-11-04T22:10:39.257Z,19.17
2018-11-04T22:13:08.750Z,19.77
2018-11-04T22:15:38.281Z,18.60
2018-11-04T22:18:07.912Z,19.27
2018-11-04T22:20:37.424Z,19.17
2018-11-04T22:23:07.041Z,18.70
2018-11-04T22:25:36.624Z,19.43
2018-11-04T22:28:06.210Z,18.90
2018-11-04T22:30:35.700Z,18.83
2018-11-04T22:33:05.257Z,18.63
2018-11-04T22:35:34.835Z,18.87
2018-11-04T22:38:04.427Z,18.10
2018-11-04T22:40:33.927Z,19.23
2018-11-04T22:43:03.492Z,19.47
2018-11-04T22:45:32.985Z,19.77
2018-11-04T22:48:02.529Z,19.53
2018-11-04T22:50:32.050Z,19.90
2018-11-04T22:53:01.653Z,18.23
2018-11-04T22:55:31.146Z,18.23
2018-11-04T22:58:06.458Z,18.37
2018-11-04T23:00:41.091Z,18.00
2018-11-04T23:03:11.125Z,18.23
2018-11-04T23:05:40.683Z,17.67
2018-11-04T23:08:10.719Z,18.30
2018-11-04T23:10:40.289Z,17.60
2018-11-04T23:13:09.788Z,18.17
2018-11-04T23:15:39.325Z,17.40
2018-11-04T23:18:08.891Z,19.13
2018-11-04T23:20:38.419Z,16.87
2018-11-04T23:23:07.951Z,16.23
2018-11-04T23:25:37.471Z,15.60
2018-11-04T23:28:07.026Z,14.07
2018-11-04T23:30:36.563Z,13.87
2018-11-04T23:33:06.139Z,14.33
2018-11-04T23:35:35.707Z,12.90
2018-11-04T23:38:05.289Z,11.33
2018-11-04T23:40:34.796Z,10.30
2018-11-04T23:43:04.358Z,11.17
2018-11-04T23:45:33.890Z,11.00
2018-11-04T23:48:03.444Z,10.00
2018-11-04T23:50:32.934Z,10.73
2018-11-04T23:53:02.454Z,10.83
2018-11-04T23:55:31.974Z,12.90
2018-11-04T23:58:01.519Z,12.40
